Latest Coastal Weather Observations for Aireys Inlet

IDV60701

Issued at 5:02 am EDT Tuesday 28 February 2017 (issued every 10 minutes, with the page automatically refreshed every 10 minutes)

About coastal observations | Map of coastal stations | Coastal observations for VIC | Marine services | Other Formats
Station Details ID: 090180 Name: AIREYS INLET Lat: -38.46 Lon: 144.09 Height: 105.0 m
Data from the previous 72 hours. | See also: Recent months at Aireys Inlet
Date/Time
EDT
Temp
°C
Wind Pressure Rain since
9am
mm
Weather Cloud Vis
km
Sea
Height
m
Swell
Dir  Spd
kts
Gust
kts
hPa Trend Height
m
Period
s
Dir
28/04:30am 18.7 NNW 3 3 - - 0.0 - - - - - - -
28/04:00am 18.4 NNW 4 5 - - 0.0 - - - - - - -
28/03:30am 18.4 NNW 4 5 - - 0.0 - - - - - - -
28/03:00am 19.1 NNW 2 3 - - 0.0 - - - - - - -
28/02:30am 18.8 NNW 3 4 - - 0.0 - - - - - - -
28/02:00am 18.8 NNW 3 4 - - 0.0 - - - - - - -
28/01:30am 19.1 NW 4 4 - - 0.0 - - - - - - -
28/01:00am 18.8 NW 3 5 - - 0.0 - - - - - - -
28/12:30am 19.3 WNW 2 3 - - 0.0 - - - - - - -
28/12:00am 19.1 NNW 2 3 - - 0.0 - - - - - - -
 
Date/Time
EDT
Temp
°C
Wind Pressure Rain since
9am
mm
Weather Cloud Vis
km
Sea
Height
m
Swell
Dir  Spd
kts
Gust
kts
hPa Trend Height
m
Period
s
Dir
27/11:30pm 19.1 NW 3 4 - - 0.0 - - - - - - -
27/11:00pm 19.3 WNW 2 2 - - 0.0 - - - - - - -
27/10:30pm 19.5 SW 2 3 - - 0.0 - - - - - - -
27/10:00pm 19.7 SSW 2 3 - - 0.0 - - - - - - -
27/09:30pm 19.6 SW 3 5 - - 0.0 - - - - - - -
27/09:00pm 19.7 SW 2 3 - - 0.0 - - - - - - -
27/08:30pm 19.8 SSW 2 2 - - 0.0 - - - - - - -
27/08:00pm 20.7 CALM 0 0 - - 0.0 - - - - - - -
27/07:30pm 21.9 SSW 1 3 - - 0.0 - - - - - - -
27/07:00pm 22.5 CALM 0 1 - - 0.0 - - - - - - -
27/06:30pm 23.5 SSW 2 5 - - 0.0 - - - - - - -
27/06:00pm 23.6 SW 4 6 - - 0.0 - - - - - - -
27/05:30pm 23.9 SW 6 8 - - 0.0 - - - - - - -
27/05:00pm 24.8 SW 6 8 - - 0.0 - - - - - - -
27/04:30pm 25.9 SSW 5 7 - - 0.0 - - - - - - -
27/04:00pm 25.6 SSW 4 6 - - 0.0 - - - - - - -
27/03:30pm 25.3 SSE 3 5 - - 0.0 - - - - - - -
27/03:00pm 25.1 SSE 3 5 - - 0.0 - - - - - - -
27/02:30pm 24.6 SE 4 6 - - 0.0 - - - - - - -
27/02:00pm 24.7 ESE 5 7 - - 0.0 - - - - - - -
27/01:30pm 24.0 E 5 8 - - 0.0 - - - - - - -
27/01:00pm 23.4 E 6 8 - - 0.0 - - - - - - -
27/12:30pm 22.3 E 7 10 - - 0.0 - - - - - - -
27/12:00pm 23.4 E 6 10 - - 0.0 - - - - - - -
27/11:30am 23.0 E 6 9 - - 0.0 - - - - - - -
27/11:00am 22.6 E 6 9 - - 0.0 - - - - - - -
27/10:30am 22.4 E 3 4 - - 0.0 - - - - - - -
27/10:00am 20.8 NNW 2 4 - - 0.0 - - - - - - -
27/09:30am 19.0 NNE 1 3 - - 0.0 - - - - - - -
27/09:00am 17.3 NNW 2 7 - - 0.0 - - - - - - -
27/08:30am 16.3 NW 1 2 - - 0.0 - - - - - - -
27/08:00am 15.8 CALM 0 0 - - 0.0 - - - - - - -
27/07:30am 15.5 SW 1 2 - - 0.0 - - - - - - -
27/07:00am 15.1 SW 2 3 - - 0.0 - - - - - - -
27/06:30am 15.3 SW 3 3 - - 0.0 - - - - - - -
27/06:00am 15.4 SW 3 4 - - 0.0 - - - - - - -
27/05:30am 15.3 WSW 3 4 - - 0.0 - - - - - - -
27/05:00am 15.6 WSW 3 4 - - 0.0 - - - - - - -
27/04:30am 15.7 WSW 5 6 - - 0.0 - - - - - - -
27/04:00am 15.7 WSW 4 5 - - 0.0 - - - - - - -
27/03:30am 15.8 WSW 4 5 - - 0.0 - - - - - - -
27/03:00am 15.8 WSW 4 5 - - 0.0 - - - - - - -
27/02:30am 16.1 WSW 3 4 - - 0.0 - - - - - - -
27/02:00am 16.1 WSW 4 4 - - 0.0 - - - - - - -
27/01:30am 16.5 W 2 3 - - 0.0 - - - - - - -
27/01:00am 16.7 WSW 3 4 - - 0.0 - - - - - - -
27/12:30am 16.6 WSW 4 5 - - 0.0 - - - - - - -
27/12:00am 16.9 W 3 5 - - 0.0 - - - - - - -
 
Date/Time
EDT
Temp
°C
Wind Pressure Rain since
9am
mm
Weather Cloud Vis
km
Sea
Height
m
Swell
Dir  Spd
kts
Gust
kts
hPa Trend Height
m
Period
s
Dir
26/11:30pm 17.1 WSW 5 6 - - 0.0 - - - - - - -
26/11:00pm 17.1 WSW 5 7 - - 0.0 - - - - - - -
26/10:30pm 17.3 SW 5 6 - - 0.0 - - - - - - -
26/10:00pm 17.9 SW 4 6 - - 0.0 - - - - - - -
26/09:30pm 18.1 SSW 5 7 - - 0.0 - - - - - - -
26/09:00pm 18.2 SSW 5 8 - - 0.0 - - - - - - -
26/08:30pm 18.5 SSW 5 8 - - 0.0 - - - - - - -
26/08:00pm 19.2 SSW 6 8 - - 0.0 - - - - - - -
26/07:30pm 20.4 SSW 5 8 - - 0.0 - - - - - - -
26/07:00pm 21.7 SW 5 7 - - 0.0 - - - - - - -
26/06:30pm 22.2 SW 5 8 - - 0.0 - - - - - - -
26/06:00pm 22.4 SW 5 7 - - 0.0 - - - - - - -
26/05:30pm 23.0 SSW 5 8 - - 0.0 - - - - - - -
26/05:00pm 23.2 SSW 5 9 - - 0.0 - - - - - - -
26/04:30pm 23.0 SSW 5 9 - - 0.0 - - - - - - -
26/04:00pm 23.0 SSW 6 10 - - 0.0 - - - - - - -
26/03:30pm 22.1 SSW 6 10 - - 0.0 - - - - - - -
26/03:00pm 22.4 SSW 6 8 - - 0.0 - - - - - - -
26/02:30pm 22.1 S 4 7 - - 0.0 - - - - - - -
26/02:00pm 21.3 SSE 6 10 - - 0.0 - - - - - - -
26/01:30pm 20.9 S 5 9 - - 0.0 - - - - - - -
26/01:00pm 21.6 S 5 8 - - 0.0 - - - - - - -
26/12:30pm 20.9 SSE 5 7 - - 0.0 - - - - - - -
26/12:00pm 20.3 SE 4 8 - - 0.0 - - - - - - -
26/11:30am 20.3 ESE 5 8 - - 0.0 - - - - - - -
26/11:00am 19.5 ESE 5 9 - - 0.0 - - - - - - -
26/10:30am 19.3 ESE 6 10 - - 0.0 - - - - - - -
26/10:00am 19.1 ESE 6 10 - - 0.0 - - - - - - -
26/09:30am 18.9 E 6 10 - - 0.0 - - - - - - -
26/09:00am 18.6 E 7 12 - - 0.0 - - - - - - -
26/08:30am 18.0 E 8 14 - - 0.0 - - - - - - -
26/08:00am 17.3 E 8 14 - - 0.0 - - - - - - -
26/07:30am 16.6 E 8 12 - - 0.0 - - - - - - -
26/07:00am 16.5 E 9 14 - - 0.0 - - - - - - -
26/06:30am 16.5 ESE 9 15 - - 0.0 - - - - - - -
26/06:00am 16.5 ESE 9 15 - - 0.0 - - - - - - -
26/05:30am 16.6 ESE 8 15 - - 0.0 - - - - - - -
26/05:00am 16.8 ESE 9 17 - - 0.0 - - - - - - -
26/04:30am 16.8 ESE 9 17 - - 0.0 - - - - - - -
26/04:00am 16.6 ESE 9 16 - - 0.0 - - - - - - -
26/03:30am 16.8 ESE 10 15 - - 0.0 - - - - - - -
26/03:00am 16.7 ESE 10 18 - - 0.0 - - - - - - -
26/02:30am 16.4 ESE 9 17 - - 0.0 - - - - - - -
26/02:00am 16.4 ESE 10 17 - - 0.0 - - - - - - -
26/01:30am 16.5 ESE 9 18 - - 0.0 - - - - - - -
26/01:00am 16.5 ESE 10 17 - - 0.0 - - - - - - -
26/12:30am 16.7 ESE 8 14 - - 0.0 - - - - - - -
26/12:00am 16.9 ESE 9 15 - - 0.0 - - - - - - -
 
Date/Time
EDT
Temp
°C
Wind Pressure Rain since
9am
mm
Weather Cloud Vis
km
Sea
Height
m
Swell
Dir  Spd
kts
Gust
kts
hPa Trend Height
m
Period
s
Dir
25/11:30pm 16.6 ESE 9 15 - - 0.0 - - - - - - -
25/11:00pm 16.4 ESE 9 18 - - 0.0 - - - - - - -
25/10:30pm 16.5 ESE 9 14 - - 0.0 - - - - - - -
25/10:00pm 16.3 SE 7 12 - - 0.0 - - - - - - -
25/09:30pm 16.3 SE 8 15 - - 0.0 - - - - - - -
25/09:00pm 16.2 SSE 5 7 - - 0.0 - - - - - - -
25/08:30pm 15.9 SSE 6 9 - - 0.0 - - - - - - -
25/08:00pm 15.1 SSE 5 9 - - 0.0 - - - - - - -
25/07:30pm 15.9 SSE 6 10 - - 0.0 - - - - - - -
25/07:00pm 16.4 SSE 6 10 - - 0.0 - - - - - - -
25/06:30pm 16.5 S 8 13 - - 0.0 - - - - - - -
25/06:00pm 17.7 SSW 10 15 - - 0.0 - - - - - - -
25/05:30pm 17.0 SSW 10 16 - - 0.0 - - - - - - -
25/05:00pm 19.4 SSW 11 18 - - 0.0 - - - - - - -
25/04:30pm 17.5 SSW 12 18 - - 0.0 - - - - - - -
25/04:00pm 17.9 SSW 13 20 - - 0.0 - - - - - - -
25/03:30pm 17.8 SW 13 21 - - 0.0 - - - - - - -
25/03:00pm 18.4 SSW 13 20 - - 0.0 - - - - - - -
25/02:30pm 18.2 SW 13 20 - - 0.0 - - - - - - -
25/02:00pm 19.3 SSW 11 17 - - 0.0 - - - - - - -
25/01:30pm 18.9 SSW 11 16 - - 0.0 - - - - - - -
25/01:00pm 18.5 SSW 11 16 - - 0.0 - - - - - - -
25/12:30pm 18.1 SSW 12 18 - - 0.0 - - - - - - -
25/12:00pm 17.3 SSW 13 19 - - 0.0 - - - - - - -
25/11:30am 17.5 S 12 20 - - 0.0 - - - - - - -
25/11:00am 17.1 SSW 12 17 - - 0.0 - - - - - - -
25/10:30am 16.1 SSW 13 22 - - 0.0 - - - - - - -
25/10:00am 15.3 S 12 17 - - 0.0 - - - - - - -
25/09:30am 15.0 SSW 13 18 - - 0.0 - - - - - - -
25/09:00am 14.1 SSW 13 19 - - 0.0 - - - - - - -
25/08:30am 13.7 S 12 20 - - 0.0 - - - - - - -
25/08:00am 13.7 S 12 18 - - 0.0 - - - - - - -
25/07:30am 13.4 SSW 11 16 - - 0.0 - - - - - - -
25/07:00am 13.5 S 13 19 - - 0.0 - - - - - - -
25/06:30am 13.5 S 12 19 - - 0.0 - - - - - - -
25/06:00am 13.4 S 12 18 - - 0.0 - - - - - - -
25/05:30am 13.5 S 12 17 - - 0.0 - - - - - - -

Other Formats:

Comma delimited format used in spreadsheet applications
http://www.bom.gov.au/fwo/IDV60701/IDV60701.94846.axf

JavaScript Object Notation format (JSON) in row-major order
http://www.bom.gov.au/fwo/IDV60701/IDV60701.94846.json